Time;durP1;ratioP1;P1;durP2;ratioP2;P2;SDS_P1;SDS_P2;PMS_P1;PMS_P2;Temp;Humidity;BMP_temperature;BMP_pressure;BME280_temperature;BME280_humidity;BME280_pressure;Samples;Min_cycle;Max_cycle;Signal;HPM_P1;HPM_P2
2022/11/21 00:02:31;;;;;;;8.30;1.95;;;;;;;;;;4952966;28;20443;-62
2022/11/21 00:05:02;;;;;;;6.47;2.15;;;;;;;;;;4952234;28;20530;-63
2022/11/21 00:07:32;;;;;;;4.50;2.05;;;;;;;;;;4936038;29;20066;-63
2022/11/21 00:10:02;;;;;;;6.88;2.00;;;;;;;;;;4904708;29;20071;-63
2022/11/21 00:12:33;;;;;;;8.27;2.10;;;;;;;;;;4952098;28;20066;-62
2022/11/21 00:15:04;;;;;;;6.07;2.10;;;;;;;;;;4932705;29;20040;-63
2022/11/21 00:17:34;;;;;;;6.38;2.55;;;;;;;;;;4883195;29;20059;-63
2022/11/21 00:20:04;;;;;;;11.10;2.28;;;;;;;;;;4932801;29;20048;-63
2022/11/21 00:22:35;;;;;;;8.05;2.60;;;;;;;;;;4933258;29;20059;-63
2022/11/21 00:25:06;;;;;;;12.25;2.60;;;;;;;;;;4951217;28;20067;-63
2022/11/21 00:27:37;;;;;;;6.80;2.30;;;;;;;;;;4988547;28;20049;-64
2022/11/21 00:30:09;;;;;;;7.35;2.58;;;;;;;;;;5017800;28;20050;-63
2022/11/21 00:32:40;;;;;;;9.95;2.55;;;;;;;;;;5010470;28;20514;-62
2022/11/21 00:35:10;;;;;;;5.78;2.80;;;;;;;;;;5010371;28;20068;-63
2022/11/21 00:37:41;;;;;;;5.43;2.58;;;;;;;;;;5010555;28;20502;-65
2022/11/21 00:40:12;;;;;;;9.30;3.20;;;;;;;;;;5010391;28;20058;-63
2022/11/21 00:42:42;;;;;;;8.70;3.20;;;;;;;;;;5010685;28;20060;-63
2022/11/21 00:45:12;;;;;;;9.07;3.15;;;;;;;;;;5010303;28;20066;-63
2022/11/21 00:47:49;;;;;;;9.25;2.67;;;;;;;;;;5010183;28;20050;-62
2022/11/21 00:50:19;;;;;;;6.75;2.33;;;;;;;;;;5010472;28;20423;-62
2022/11/21 00:52:57;;;;;;;8.32;2.75;;;;;;;;;;4987339;28;20050;-63
2022/11/21 00:55:27;;;;;;;9.25;3.03;;;;;;;;;;5010048;28;20065;-63
2022/11/21 00:57:58;;;;;;;12.77;3.42;;;;;;;;;;5009725;28;20065;-64
2022/11/21 01:00:28;;;;;;;12.25;3.08;;;;;;;;;;5010355;28;20062;-61
2022/11/21 01:02:57;;;;;;;7.38;3.13;;;;;;;;;;5010123;28;20430;-63
2022/11/21 01:05:27;;;;;;;11.93;3.22;;;;;;;;;;4978818;28;20062;-61
2022/11/21 01:07:58;;;;;;;8.40;3.60;;;;;;;;;;4990415;28;20057;-63
2022/11/21 01:10:29;;;;;;;9.50;3.78;;;;;;;;;;4989874;28;20061;-63
2022/11/21 01:12:59;;;;;;;8.93;3.35;;;;;;;;;;4957878;28;20062;-62
2022/11/21 01:15:30;;;;;;;15.02;3.60;;;;;;;;;;4990176;28;20522;-63
2022/11/21 01:18:00;;;;;;;14.52;2.90;;;;;;;;;;4990342;28;20061;-62
2022/11/21 01:20:30;;;;;;;9.68;3.33;;;;;;;;;;4989805;28;20054;-62
2022/11/21 01:22:59;;;;;;;13.63;3.83;;;;;;;;;;4990130;28;20530;-62
2022/11/21 01:25:32;;;;;;;8.38;3.50;;;;;;;;;;5000058;28;20058;-63
2022/11/21 01:28:02;;;;;;;15.15;3.38;;;;;;;;;;4977175;28;20069;-62
2022/11/21 01:30:32;;;;;;;10.40;3.63;;;;;;;;;;5009389;28;20057;-62
2022/11/21 01:33:02;;;;;;;8.73;3.55;;;;;;;;;;4977159;28;20402;-63
2022/11/21 01:35:32;;;;;;;13.55;3.42;;;;;;;;;;4976856;28;20065;-62
2022/11/21 01:38:02;;;;;;;7.57;3.72;;;;;;;;;;5009751;28;20409;-63
2022/11/21 01:40:40;;;;;;;8.75;3.33;;;;;;;;;;4950559;28;20053;-63
2022/11/21 01:43:13;;;;;;;9.57;3.85;;;;;;;;;;5030540;28;20061;-63
2022/11/21 01:46:00;;;;;;;12.52;3.42;;;;;;;;;;4989254;28;20054;-63
2022/11/21 01:48:54;;;;;;;9.98;3.78;;;;;;;;;;4957750;28;20050;-63
2022/11/21 01:51:41;;;;;;;11.13;3.05;;;;;;;;;;4989600;28;20054;-63
2022/11/21 01:54:25;;;;;;;10.27;3.28;;;;;;;;;;4922852;28;20039;-63
2022/11/21 01:57:09;;;;;;;9.52;3.30;;;;;;;;;;4970414;28;20070;-63
2022/11/21 01:59:52;;;;;;;12.32;3.75;;;;;;;;;;4938340;28;20058;-63
2022/11/21 02:02:27;;;;;;;10.23;3.50;;;;;;;;;;4970179;28;20062;-63
2022/11/21 02:05:00;;;;;;;9.27;3.60;;;;;;;;;;4970307;28;20073;-63
2022/11/21 02:07:35;;;;;;;14.35;3.95;;;;;;;;;;4970207;28;20391;-63
2022/11/21 02:10:06;;;;;;;14.25;3.90;;;;;;;;;;4973939;28;20511;-63
2022/11/21 02:12:50;;;;;;;10.63;3.83;;;;;;;;;;4973662;28;20628;-64
2022/11/21 02:15:24;;;;;;;12.88;4.60;;;;;;;;;;4941909;28;20407;-62
2022/11/21 02:17:54;;;;;;;8.43;3.72;;;;;;;;;;4989246;28;20065;-63
2022/11/21 02:20:27;;;;;;;10.13;3.55;;;;;;;;;;4993377;28;20058;-63
2022/11/21 02:23:26;;;;;;;13.48;3.78;;;;;;;;;;4993103;28;20614;-63
2022/11/21 02:25:56;;;;;;;10.05;3.92;;;;;;;;;;4993157;28;20065;-62
2022/11/21 02:28:28;;;;;;;17.00;3.65;;;;;;;;;;5008500;28;20061;-63
2022/11/21 02:30:59;;;;;;;11.23;3.58;;;;;;;;;;5005772;28;20048;-63
2022/11/21 02:33:30;;;;;;;9.82;3.45;;;;;;;;;;5039176;28;20052;-63
2022/11/21 02:36:02;;;;;;;12.05;3.92;;;;;;;;;;5038832;28;20072;-63
2022/11/21 02:38:36;;;;;;;19.02;4.25;;;;;;;;;;5072468;28;20064;-63
2022/11/21 02:41:25;;;;;;;14.75;4.28;;;;;;;;;;5072200;28;20048;-62
2022/11/21 02:44:19;;;;;;;11.10;3.38;;;;;;;;;;5051966;28;20057;-63
2022/11/21 02:46:50;;;;;;;17.42;3.95;;;;;;;;;;5052302;28;20057;-61
2022/11/21 02:49:29;;;;;;;13.80;4.30;;;;;;;;;;5051920;28;20053;-61
2022/11/21 02:51:59;;;;;;;8.63;3.53;;;;;;;;;;5051978;28;20064;-62
2022/11/21 02:54:29;;;;;;;10.18;3.80;;;;;;;;;;5052037;28;20401;-62
2022/11/21 02:56:59;;;;;;;11.10;3.72;;;;;;;;;;5051947;28;20048;-62
2022/11/21 02:59:29;;;;;;;9.20;3.75;;;;;;;;;;5051905;28;20075;-62
2022/11/21 03:02:00;;;;;;;11.50;4.53;;;;;;;;;;5035469;28;20416;-62
2022/11/21 03:04:29;;;;;;;9.80;3.95;;;;;;;;;;5051706;28;20405;-62
2022/11/21 03:07:00;;;;;;;9.35;3.50;;;;;;;;;;5051855;28;20505;-63
2022/11/21 03:09:30;;;;;;;11.43;3.72;;;;;;;;;;5051784;28;20405;-63
2022/11/21 03:12:04;;;;;;;9.05;3.78;;;;;;;;;;5051456;28;20481;-63
2022/11/21 03:14:36;;;;;;;8.98;3.70;;;;;;;;;;5051667;28;20064;-62
2022/11/21 03:17:06;;;;;;;13.00;3.63;;;;;;;;;;5051591;28;20057;-63
2022/11/21 03:19:36;;;;;;;12.02;3.42;;;;;;;;;;5001211;28;20448;-62
2022/11/21 03:22:06;;;;;;;8.75;3.72;;;;;;;;;;5044648;28;20064;-64
2022/11/21 03:24:37;;;;;;;8.82;3.50;;;;;;;;;;5073907;28;20048;-65
2022/11/21 03:27:07;;;;;;;20.30;4.65;;;;;;;;;;5073823;28;20388;-63
2022/11/21 03:29:37;;;;;;;13.18;3.45;;;;;;;;;;5073708;28;20048;-63
2022/11/21 03:32:07;;;;;;;9.77;3.35;;;;;;;;;;5073964;28;20047;-63
2022/11/21 03:34:37;;;;;;;11.02;3.42;;;;;;;;;;5073741;28;20048;-62
2022/11/21 03:37:07;;;;;;;10.70;4.57;;;;;;;;;;5073768;28;20049;-62
2022/11/21 03:39:37;;;;;;;9.85;3.28;;;;;;;;;;5054938;28;20068;-62
2022/11/21 03:42:07;;;;;;;9.30;3.72;;;;;;;;;;5038180;28;20071;-63
2022/11/21 03:44:37;;;;;;;11.35;3.30;;;;;;;;;;5073735;28;20055;-62
2022/11/21 03:47:07;;;;;;;8.10;3.25;;;;;;;;;;5038589;28;20063;-64
2022/11/21 03:49:37;;;;;;;10.40;3.58;;;;;;;;;;5073643;28;20061;-62
2022/11/21 03:52:07;;;;;;;9.00;3.63;;;;;;;;;;5073291;28;20040;-63
2022/11/21 03:54:36;;;;;;;8.30;3.40;;;;;;;;;;5091118;28;20048;-63
2022/11/21 03:57:06;;;;;;;15.52;3.92;;;;;;;;;;5091389;28;20055;-63
2022/11/21 03:59:36;;;;;;;8.73;3.28;;;;;;;;;;5091140;28;20052;-63
2022/11/21 04:02:06;;;;;;;9.65;3.90;;;;;;;;;;5070590;28;20049;-62
2022/11/21 04:04:36;;;;;;;9.10;3.47;;;;;;;;;;5070820;28;20056;-63
2022/11/21 04:07:06;;;;;;;10.23;4.25;;;;;;;;;;5010729;28;20520;-63
2022/11/21 04:09:36;;;;;;;8.57;4.10;;;;;;;;;;4971904;28;20058;-64
2022/11/21 04:12:07;;;;;;;12.52;3.35;;;;;;;;;;4971950;28;20066;-65
2022/11/21 04:14:36;;;;;;;11.13;3.85;;;;;;;;;;4972032;28;20055;-64
2022/11/21 04:17:07;;;;;;;8.13;3.25;;;;;;;;;;4971894;28;20055;-64
2022/11/21 04:19:36;;;;;;;10.57;3.40;;;;;;;;;;4971765;28;20099;-63
2022/11/21 04:22:07;;;;;;;10.32;3.03;;;;;;;;;;4971651;28;20066;-63
2022/11/21 04:24:37;;;;;;;8.68;3.13;;;;;;;;;;4971488;28;20518;-63
2022/11/21 04:27:08;;;;;;;11.32;4.13;;;;;;;;;;4971608;28;20063;-64
2022/11/21 04:29:38;;;;;;;9.32;3.00;;;;;;;;;;4971928;28;20046;-63
2022/11/21 04:32:08;;;;;;;8.02;3.13;;;;;;;;;;4980293;28;20058;-64
2022/11/21 04:34:38;;;;;;;10.30;3.60;;;;;;;;;;4958786;28;20164;-63
2022/11/21 04:37:08;;;;;;;8.85;3.58;;;;;;;;;;4942567;28;20054;-63
2022/11/21 04:39:40;;;;;;;8.23;3.22;;;;;;;;;;4994177;28;20050;-63
2022/11/21 04:42:10;;;;;;;10.65;3.03;;;;;;;;;;4961723;28;20054;-63
2022/11/21 04:44:40;;;;;;;9.60;3.80;;;;;;;;;;5019575;28;20057;-63
2022/11/21 04:47:09;;;;;;;11.45;3.40;;;;;;;;;;4981555;28;20070;-63
2022/11/21 04:49:40;;;;;;;9.77;3.08;;;;;;;;;;4971349;28;20051;-64
2022/11/21 04:52:11;;;;;;;8.73;3.38;;;;;;;;;;4971094;28;20063;-63
2022/11/21 04:54:41;;;;;;;7.45;3.00;;;;;;;;;;4971162;28;20055;-63
2022/11/21 04:57:11;;;;;;;8.18;2.67;;;;;;;;;;4971072;28;20054;-62
2022/11/21 04:59:41;;;;;;;6.45;2.50;;;;;;;;;;4971141;28;20222;-63
2022/11/21 05:02:10;;;;;;;6.28;2.83;;;;;;;;;;4970905;28;20392;-63
2022/11/21 05:04:41;;;;;;;5.47;2.25;;;;;;;;;;4971188;28;20063;-63
2022/11/21 05:07:11;;;;;;;6.22;2.15;;;;;;;;;;4970871;28;20063;-63
2022/11/21 05:09:41;;;;;;;5.95;2.38;;;;;;;;;;4970648;28;20074;-61
2022/11/21 05:15:00;;;;;;;7.82;2.25;;;;;;;;;;4957850;28;20042;-64
2022/11/21 05:17:30;;;;;;;10.75;2.33;;;;;;;;;;4990402;28;20054;-63
2022/11/21 05:20:00;;;;;;;6.53;2.33;;;;;;;;;;4990144;28;20050;-63
2022/11/21 05:22:30;;;;;;;5.75;1.95;;;;;;;;;;4990364;28;20610;-60
2022/11/21 05:25:00;;;;;;;5.75;2.50;;;;;;;;;;5001837;28;20058;-63
2022/11/21 05:27:30;;;;;;;5.63;2.50;;;;;;;;;;5009389;28;20053;-63
2022/11/21 05:30:01;;;;;;;5.53;2.30;;;;;;;;;;5009737;28;20053;-61
2022/11/21 05:32:31;;;;;;;5.50;2.42;;;;;;;;;;5032874;28;20061;-61
2022/11/21 05:35:01;;;;;;;5.90;2.53;;;;;;;;;;5049590;28;20065;-61
2022/11/21 05:37:31;;;;;;;5.68;2.25;;;;;;;;;;5016027;28;20068;-63
2022/11/21 05:40:01;;;;;;;6.28;2.42;;;;;;;;;;5049214;28;20417;-61
2022/11/21 05:45:20;;;;;;;5.20;2.25;;;;;;;;;;5053572;28;20064;-64
2022/11/21 05:47:50;;;;;;;4.60;2.95;;;;;;;;;;5039371;28;20544;-61
2022/11/21 05:50:20;;;;;;;7.55;2.35;;;;;;;;;;5033687;28;20529;-63
2022/11/21 05:52:50;;;;;;;5.15;2.17;;;;;;;;;;5028326;28;20510;-63
2022/11/21 05:55:20;;;;;;;5.20;2.35;;;;;;;;;;5036168;28;20056;-63
2022/11/21 05:57:50;;;;;;;8.10;2.45;;;;;;;;;;5053280;28;20061;-63
2022/11/21 06:00:20;;;;;;;7.15;2.53;;;;;;;;;;5020023;28;20057;-63
2022/11/21 06:05:38;;;;;;;8.20;2.53;;;;;;;;;;5053186;28;21190;-61
2022/11/21 06:08:08;;;;;;;5.50;2.88;;;;;;;;;;5015870;28;20679;-63
2022/11/21 06:10:38;;;;;;;7.32;2.35;;;;;;;;;;5033169;28;20062;-61
2022/11/21 06:13:29;;;;;;;6.95;2.30;;;;;;;;;;5016207;28;20053;-62
2022/11/21 06:16:00;;;;;;;6.90;3.05;;;;;;;;;;5033101;28;20390;-62
2022/11/21 06:18:32;;;;;;;5.40;2.38;;;;;;;;;;5016451;28;20061;-61
2022/11/21 06:21:08;;;;;;;6.05;2.13;;;;;;;;;;5032982;28;20057;-61
2022/11/21 06:23:38;;;;;;;6.07;2.35;;;;;;;;;;5032874;28;20056;-61
2022/11/21 06:26:13;;;;;;;8.90;2.45;;;;;;;;;;5033179;28;20498;-61
2022/11/21 06:28:44;;;;;;;6.47;2.45;;;;;;;;;;5032553;28;20045;-61
2022/11/21 06:31:17;;;;;;;5.65;2.05;;;;;;;;;;5032616;28;20053;-61
2022/11/21 06:33:52;;;;;;;7.90;2.30;;;;;;;;;;5032792;28;20513;-61
2022/11/21 06:36:23;;;;;;;4.22;1.73;;;;;;;;;;5033025;28;20057;-61
2022/11/21 06:38:54;;;;;;;6.20;2.40;;;;;;;;;;5032617;28;20060;-62
2022/11/21 06:41:29;;;;;;;3.72;1.90;;;;;;;;;;5032207;28;20053;-62
2022/11/21 06:44:00;;;;;;;7.57;2.42;;;;;;;;;;5032627;28;20060;-62
2022/11/21 06:46:30;;;;;;;5.88;2.22;;;;;;;;;;5038361;28;20040;-62
2022/11/21 06:49:01;;;;;;;6.38;2.40;;;;;;;;;;5072330;28;20052;-61
2022/11/21 06:51:31;;;;;;;9.60;2.40;;;;;;;;;;5072201;28;20064;-61
2022/11/21 06:54:00;;;;;;;7.38;2.88;;;;;;;;;;5071096;28;20574;-61
2022/11/21 06:56:31;;;;;;;9.05;2.78;;;;;;;;;;5071756;28;20180;-61
2022/11/21 06:59:02;;;;;;;6.90;2.47;;;;;;;;;;5031706;28;20061;-62
2022/11/21 07:01:32;;;;;;;7.97;2.67;;;;;;;;;;5032341;28;20157;-61
2022/11/21 07:04:02;;;;;;;3.38;2.15;;;;;;;;;;4998824;28;20064;-62
2022/11/21 07:06:34;;;;;;;7.20;2.10;;;;;;;;;;5031686;28;20541;-61
2022/11/21 07:09:04;;;;;;;9.70;2.58;;;;;;;;;;4998881;28;20497;-63
2022/11/21 07:13:20;;;;;;;4.85;2.20;;;;;;;;;;5031570;28;20490;-61
2022/11/21 07:14:45;;;;;;;8.10;2.63;;;;;;;;;;5031630;28;20053;-61
2022/11/21 07:17:15;;;;;;;4.93;2.40;;;;;;;;;;4998609;28;20567;-61
2022/11/21 07:19:45;;;;;;;5.97;2.33;;;;;;;;;;5015943;28;20077;-61
2022/11/21 07:22:16;;;;;;;8.10;2.05;;;;;;;;;;4979186;28;20513;-61
2022/11/21 07:24:46;;;;;;;7.05;2.72;;;;;;;;;;5026963;28;20153;-61
2022/11/21 07:27:17;;;;;;;7.18;2.50;;;;;;;;;;5031716;28;20052;-62
2022/11/21 07:29:47;;;;;;;8.25;2.13;;;;;;;;;;5031282;28;20162;-61
2022/11/21 07:32:17;;;;;;;4.68;2.17;;;;;;;;;;5015281;28;20158;-61
2022/11/21 07:34:46;;;;;;;7.47;2.47;;;;;;;;;;5031570;28;20060;-61
2022/11/21 07:37:17;;;;;;;6.00;2.08;;;;;;;;;;5026682;28;20045;-61
2022/11/21 07:39:47;;;;;;;7.40;3.05;;;;;;;;;;5031414;28;20417;-63
2022/11/21 07:42:17;;;;;;;5.47;2.03;;;;;;;;;;5014266;28;20049;-61
2022/11/21 07:44:47;;;;;;;6.43;2.85;;;;;;;;;;5031585;28;20553;-61
2022/11/21 07:47:17;;;;;;;8.93;3.17;;;;;;;;;;4998366;28;20061;-61
2022/11/21 07:49:47;;;;;;;5.38;2.20;;;;;;;;;;5031327;28;20121;-61
2022/11/21 07:52:17;;;;;;;5.43;2.38;;;;;;;;;;5031127;28;20163;-61
2022/11/21 07:54:46;;;;;;;8.93;2.60;;;;;;;;;;5031200;28;20064;-61
2022/11/21 07:57:17;;;;;;;6.53;2.35;;;;;;;;;;5031014;28;20053;-61
2022/11/21 07:59:46;;;;;;;8.77;2.58;;;;;;;;;;5014743;28;20076;-62
2022/11/21 08:02:21;;;;;;;5.70;2.60;;;;;;;;;;5010906;28;20490;-61
2022/11/21 08:04:52;;;;;;;9.30;2.90;;;;;;;;;;5011053;28;20379;-61
2022/11/21 08:07:23;;;;;;;4.95;2.40;;;;;;;;;;5010655;28;20165;-61
2022/11/21 08:09:53;;;;;;;11.63;3.25;;;;;;;;;;4995298;28;20046;-61
2022/11/21 08:12:25;;;;;;;4.15;2.47;;;;;;;;;;5016292;28;20060;-61
2022/11/21 08:14:55;;;;;;;8.00;2.55;;;;;;;;;;5051124;28;20488;-62
2022/11/21 08:17:26;;;;;;;6.18;2.55;;;;;;;;;;5070454;28;20048;-61
2022/11/21 08:19:59;;;;;;;6.50;2.60;;;;;;;;;;5070245;28;20041;-61
2022/11/21 08:22:29;;;;;;;6.65;2.65;;;;;;;;;;5070294;28;20060;-62
2022/11/21 08:25:00;;;;;;;6.70;2.65;;;;;;;;;;5037172;28;20508;-62
2022/11/21 08:27:30;;;;;;;6.88;2.83;;;;;;;;;;5029911;28;20053;-61
2022/11/21 08:30:00;;;;;;;7.85;2.85;;;;;;;;;;5010647;28;20050;-62
2022/11/21 08:32:30;;;;;;;5.65;2.70;;;;;;;;;;5010481;28;20064;-61
2022/11/21 08:35:00;;;;;;;4.90;2.58;;;;;;;;;;4993975;28;20054;-62
2022/11/21 08:37:30;;;;;;;6.53;2.25;;;;;;;;;;5010725;28;20065;-61
2022/11/21 08:40:01;;;;;;;6.93;2.60;;;;;;;;;;5010325;28;20581;-61
2022/11/21 08:42:31;;;;;;;4.70;2.90;;;;;;;;;;5026604;28;20438;-61
2022/11/21 08:45:01;;;;;;;5.63;3.28;;;;;;;;;;5010515;28;20207;-62
2022/11/21 08:47:33;;;;;;;7.85;2.67;;;;;;;;;;5010465;28;20069;-62
2022/11/21 08:50:03;;;;;;;;;;;;;;;;;;5010919;28;20066;-62
2022/11/21 08:52:37;;;;;;;5.10;2.70;;;;;;;;;;5010044;28;19925;-62
2022/11/21 08:55:07;;;;;;;8.15;2.67;;;;;;;;;;5010538;28;20069;-62
2022/11/21 08:57:42;;;;;;;7.45;2.90;;;;;;;;;;5014663;28;20057;-62
2022/11/21 09:00:13;;;;;;;8.35;2.78;;;;;;;;;;5049834;28;20049;-62
2022/11/21 09:02:43;;;;;;;7.63;2.92;;;;;;;;;;5049804;28;20053;-62
2022/11/21 09:05:14;;;;;;;5.38;2.47;;;;;;;;;;5060451;28;20067;-62
2022/11/21 09:07:43;;;;;;;7.07;2.72;;;;;;;;;;5082007;28;20052;-61
2022/11/21 09:10:16;;;;;;;9.15;2.90;;;;;;;;;;5092222;28;20047;-63
2022/11/21 09:12:47;;;;;;;6.88;2.50;;;;;;;;;;5009720;28;20049;-62
2022/11/21 09:18:06;;;;;;;6.60;2.45;;;;;;;;;;5009245;28;20058;-62
2022/11/21 09:20:41;;;;;;;10.00;3.22;;;;;;;;;;5010006;28;20072;-62
2022/11/21 09:23:14;;;;;;;7.88;3.70;;;;;;;;;;4989981;28;20375;-62
2022/11/21 09:25:46;;;;;;;9.00;3.03;;;;;;;;;;4990320;28;20054;-62
2022/11/21 09:28:16;;;;;;;9.65;3.35;;;;;;;;;;4990117;28;20050;-62
2022/11/21 09:30:46;;;;;;;8.07;2.90;;;;;;;;;;4990285;28;20065;-62
2022/11/21 09:33:19;;;;;;;5.97;2.58;;;;;;;;;;4990152;28;20050;-62
2022/11/21 09:35:49;;;;;;;7.18;2.78;;;;;;;;;;4990113;28;20054;-63
2022/11/21 09:38:19;;;;;;;7.95;3.05;;;;;;;;;;4973307;28;20054;-62
2022/11/21 09:44:36;;;;;;;8.07;3.10;;;;;;;;;;4951342;29;20054;-62
2022/11/21 09:47:29;;;;;;;7.13;3.67;;;;;;;;;;4951240;29;20070;-64
2022/11/21 09:50:30;;;;;;;8.40;3.67;;;;;;;;;;4899961;29;20052;-62
2022/11/21 09:53:08;;;;;;;8.32;3.00;;;;;;;;;;4856666;29;20058;-62
2022/11/21 09:55:50;;;;;;;10.57;3.22;;;;;;;;;;4856939;29;20065;-62
2022/11/21 09:59:10;;;;;;;8.57;2.88;;;;;;;;;;4857109;29;20065;-62
2022/11/21 10:01:53;;;;;;;9.98;4.03;;;;;;;;;;4822757;29;20478;-62
2022/11/21 10:04:36;;;;;;;4.55;2.72;;;;;;;;;;4850690;29;20050;-63
2022/11/21 10:07:26;;;;;;;9.80;3.45;;;;;;;;;;4837533;29;20491;-62
2022/11/21 10:10:35;;;;;;;4.47;2.55;;;;;;;;;;4837835;29;20066;-62
2022/11/21 10:13:18;;;;;;;7.35;2.38;;;;;;;;;;4824734;29;20066;-62
2022/11/21 10:16:15;;;;;;;7.57;3.05;;;;;;;;;;4836854;29;20483;-62
2022/11/21 10:19:15;;;;;;;5.03;2.70;;;;;;;;;;4837709;29;20062;-62
2022/11/21 10:22:15;;;;;;;6.80;2.70;;;;;;;;;;4855891;29;20057;-62
2022/11/21 10:25:22;;;;;;;6.97;2.65;;;;;;;;;;4856851;29;20081;-62
2022/11/21 10:28:15;;;;;;;5.68;2.78;;;;;;;;;;4866395;29;20060;-62
2022/11/21 10:30:47;;;;;;;5.88;2.85;;;;;;;;;;4886914;29;20067;-63
2022/11/21 10:33:31;;;;;;;6.53;2.42;;;;;;;;;;4899554;29;20536;-66
2022/11/21 10:36:24;;;;;;;8.27;2.75;;;;;;;;;;4894618;29;20048;-62
2022/11/21 10:39:02;;;;;;;4.65;2.53;;;;;;;;;;4913032;29;20060;-62
2022/11/21 10:41:55;;;;;;;5.50;2.70;;;;;;;;;;4925050;29;20063;-61
2022/11/21 10:47:28;;;;;;;6.72;3.08;;;;;;;;;;4954470;29;20039;-63
2022/11/21 10:50:28;;;;;;;10.50;2.97;;;;;;;;;;4938320;29;20055;-62
2022/11/21 10:54:31;;;;;;;7.97;2.92;;;;;;;;;;4915651;29;20083;-62
2022/11/21 10:56:05;;;;;;;8.23;2.97;;;;;;;;;;4934599;29;20063;-62
2022/11/21 10:58:43;;;;;;;7.10;2.90;;;;;;;;;;4933056;29;20063;-62
2022/11/21 11:01:28;;;;;;;8.75;2.97;;;;;;;;;;4915626;29;20081;-62
2022/11/21 11:04:04;;;;;;;;;;;;;;;;;;4971214;28;20537;-62
2022/11/21 11:06:55;;;;;;;7.75;3.92;;;;;;;;;;5000344;28;20297;-63
2022/11/21 11:09:34;;;;;;;10.77;3.05;;;;;;;;;;4953495;29;20066;-62
2022/11/21 11:15:24;;;;;;;10.15;2.88;;;;;;;;;;4937694;29;20059;-63
2022/11/21 11:17:58;;;;;;;5.45;2.45;;;;;;;;;;4970754;28;20127;-63
2022/11/21 11:20:42;;;;;;;11.23;2.83;;;;;;;;;;4973129;28;20518;-61
2022/11/21 11:23:21;;;;;;;6.40;2.75;;;;;;;;;;4953465;29;20070;-63
2022/11/21 11:26:00;;;;;;;11.80;3.15;;;;;;;;;;4953166;29;20550;-63
2022/11/21 11:28:35;;;;;;;8.93;3.50;;;;;;;;;;4921623;29;20404;-63
2022/11/21 11:31:07;;;;;;;7.05;2.92;;;;;;;;;;4953192;29;20566;-63
2022/11/21 11:33:46;;;;;;;6.60;3.13;;;;;;;;;;4974297;28;20058;-63
2022/11/21 11:36:43;;;;;;;12.85;7.05;;;;;;;;;;4991945;28;20055;-63
2022/11/21 11:39:38;;;;;;;8.40;4.43;;;;;;;;;;4992079;28;20526;-64
2022/11/21 11:48:23;;;;;;;7.47;3.22;;;;;;;;;;4972802;28;20062;-63
2022/11/21 11:50:59;;;;;;;12.00;4.82;;;;;;;;;;4956364;28;20058;-63
2022/11/21 11:53:38;;;;;;;6.93;3.97;;;;;;;;;;4951555;28;20959;-63
2022/11/21 11:56:24;;;;;;;10.68;4.80;;;;;;;;;;4962545;28;20534;-63
2022/11/21 11:59:11;;;;;;;8.90;3.38;;;;;;;;;;4969005;28;20049;-62
2022/11/21 12:02:01;;;;;;;7.32;3.55;;;;;;;;;;5004366;28;20069;-62
2022/11/21 12:04:50;;;;;;;6.97;3.00;;;;;;;;;;4997813;28;20054;-64
2022/11/21 12:07:35;;;;;;;7.55;2.75;;;;;;;;;;4993000;28;20069;-63
2022/11/21 12:12:05;;;;;;;6.13;3.35;;;;;;;;;;5010722;28;20093;-62
2022/11/21 12:13:32;;;;;;;12.00;3.40;;;;;;;;;;4978376;28;20087;-62
2022/11/21 12:16:07;;;;;;;8.60;3.95;;;;;;;;;;5010867;28;20062;-62
2022/11/21 12:18:57;;;;;;;6.20;3.35;;;;;;;;;;5020817;28;20061;-62
2022/11/21 12:21:29;;;;;;;11.80;4.30;;;;;;;;;;5010739;28;20657;-68
2022/11/21 12:24:02;;;;;;;10.45;4.97;;;;;;;;;;5028428;28;20053;-61
2022/11/21 12:26:55;;;;;;;12.48;4.28;;;;;;;;;;5030328;28;20064;-62
2022/11/21 12:29:46;;;;;;;13.52;7.50;;;;;;;;;;5014435;28;20049;-63
2022/11/21 12:33:11;;;;;;;10.70;4.70;;;;;;;;;;4990862;28;20078;-62
2022/11/21 12:36:12;;;;;;;10.18;3.45;;;;;;;;;;4895110;29;20065;-63
2022/11/21 12:38:54;;;;;;;8.88;3.47;;;;;;;;;;4894617;29;20528;-62
2022/11/21 12:45:10;;;;;;;7.75;3.65;;;;;;;;;;4895147;29;20505;-63
2022/11/21 12:54:43;;;;;;;6.07;2.83;;;;;;;;;;4848771;29;20061;-62
2022/11/21 12:57:18;;;;;;;5.13;3.20;;;;;;;;;;4897686;29;20048;-62
2022/11/21 13:00:08;;;;;;;9.65;3.40;;;;;;;;;;4944510;29;20074;-62
2022/11/21 13:03:06;;;;;;;10.98;3.47;;;;;;;;;;4913241;29;20401;-63
2022/11/21 13:05:41;;;;;;;14.00;5.90;;;;;;;;;;4912993;29;20416;-61
2022/11/21 13:08:19;;;;;;;8.63;3.05;;;;;;;;;;4913418;29;20540;-62
2022/11/21 13:14:08;;;;;;;7.90;3.28;;;;;;;;;;4968474;28;20047;-61
2022/11/21 13:16:45;;;;;;;;;;;;;;;;;;4971125;28;20074;-62
2022/11/21 13:19:35;;;;;;;8.35;3.38;;;;;;;;;;4970593;28;19922;-62
2022/11/21 13:22:05;;;;;;;8.63;2.83;;;;;;;;;;4970488;28;20055;-63
2022/11/21 13:24:44;;;;;;;7.82;2.88;;;;;;;;;;4979893;28;20153;-62
2022/11/21 13:27:33;;;;;;;11.98;3.60;;;;;;;;;;5009928;28;20053;-62
2022/11/21 13:30:10;;;;;;;8.45;3.17;;;;;;;;;;5021505;28;20053;-62
2022/11/21 13:32:52;;;;;;;7.38;3.05;;;;;;;;;;4996022;28;20064;-62
2022/11/21 13:35:22;;;;;;;6.38;2.75;;;;;;;;;;5057214;28;20064;-62
2022/11/21 13:37:53;;;;;;;9.85;3.03;;;;;;;;;;5035150;28;20500;-62
2022/11/21 13:40:27;;;;;;;5.55;3.03;;;;;;;;;;5030364;28;20063;-63
2022/11/21 13:43:09;;;;;;;4.78;2.80;;;;;;;;;;5081386;28;20203;-62
2022/11/21 13:45:59;;;;;;;9.02;3.92;;;;;;;;;;5069123;28;20516;-62
2022/11/21 13:49:03;;;;;;;7.40;3.63;;;;;;;;;;5068982;28;20051;-63
2022/11/21 13:51:38;;;;;;;8.30;3.03;;;;;;;;;;5052652;28;20057;-62
2022/11/21 13:54:33;;;;;;;7.25;2.85;;;;;;;;;;5068924;28;20500;-63
2022/11/21 13:57:18;;;;;;;7.40;3.38;;;;;;;;;;5035824;28;20432;-62
2022/11/21 14:00:11;;;;;;;6.82;3.10;;;;;;;;;;5059662;28;20416;-61
2022/11/21 14:02:56;;;;;;;6.10;2.88;;;;;;;;;;4992264;28;20050;-62
2022/11/21 14:05:45;;;;;;;6.47;3.53;;;;;;;;;;5013102;28;20054;-61
2022/11/21 14:08:18;;;;;;;8.85;3.28;;;;;;;;;;4980001;28;20054;-63
2022/11/21 14:10:51;;;;;;;8.55;3.20;;;;;;;;;;4980481;28;20058;-62
2022/11/21 14:13:30;;;;;;;9.23;3.13;;;;;;;;;;4979993;28;20050;-64
2022/11/21 14:16:40;;;;;;;8.75;3.10;;;;;;;;;;5013035;28;20065;-61
2022/11/21 14:19:17;;;;;;;5.30;2.90;;;;;;;;;;5013138;28;20517;-62
2022/11/21 14:21:49;;;;;;;8.80;3.03;;;;;;;;;;5012952;28;20056;-62
2022/11/21 14:24:20;;;;;;;7.57;2.63;;;;;;;;;;5012958;28;20062;-62
2022/11/21 14:26:52;;;;;;;8.27;3.42;;;;;;;;;;5032258;28;20045;-62
2022/11/21 14:29:36;;;;;;;8.73;3.40;;;;;;;;;;5016363;28;20054;-63
2022/11/21 14:32:14;;;;;;;8.75;3.95;;;;;;;;;;5015845;28;20049;-61
2022/11/21 14:34:44;;;;;;;8.50;2.85;;;;;;;;;;5032525;28;20065;-62
2022/11/21 14:37:15;;;;;;;8.55;3.40;;;;;;;;;;5024007;28;20445;-62
2022/11/21 14:39:46;;;;;;;7.15;3.53;;;;;;;;;;5030928;28;20060;-62
2022/11/21 14:42:35;;;;;;;11.25;3.58;;;;;;;;;;5019281;28;20053;-62
2022/11/21 14:45:27;;;;;;;6.70;3.30;;;;;;;;;;5055755;28;20064;-62
2022/11/21 14:47:58;;;;;;;8.93;3.28;;;;;;;;;;5072294;28;20048;-62
2022/11/21 14:50:32;;;;;;;8.80;3.85;;;;;;;;;;5021465;28;20053;-62
2022/11/21 14:53:03;;;;;;;7.95;3.83;;;;;;;;;;5051815;28;20049;-62
2022/11/21 14:55:34;;;;;;;6.32;3.25;;;;;;;;;;5051985;28;20057;-62
2022/11/21 14:58:05;;;;;;;7.65;3.20;;;;;;;;;;5051998;28;20052;-62
2022/11/21 15:00:35;;;;;;;9.80;3.22;;;;;;;;;;5051991;28;20401;-62
2022/11/21 15:03:26;;;;;;;6.13;3.20;;;;;;;;;;5052133;28;20056;-62
2022/11/21 15:06:02;;;;;;;8.02;3.42;;;;;;;;;;5051815;28;20083;-62
2022/11/21 15:08:38;;;;;;;8.55;3.65;;;;;;;;;;5051737;28;20107;-62
2022/11/21 15:11:50;;;;;;;9.82;3.17;;;;;;;;;;4992430;28;20057;-62
2022/11/21 15:14:23;;;;;;;6.55;3.20;;;;;;;;;;4960095;28;20209;-62
2022/11/21 15:16:56;;;;;;;4.95;2.80;;;;;;;;;;4991385;28;20079;-62
2022/11/21 15:19:28;;;;;;;8.20;3.60;;;;;;;;;;4992760;28;20058;-61
2022/11/21 15:22:03;;;;;;;8.25;2.95;;;;;;;;;;4992164;28;20629;-62
2022/11/21 15:24:42;;;;;;;5.10;2.92;;;;;;;;;;4992445;28;20058;-62
2022/11/21 15:27:28;;;;;;;5.60;2.83;;;;;;;;;;4957228;28;20058;-61
2022/11/21 15:30:13;;;;;;;6.68;2.67;;;;;;;;;;4972836;28;20057;-62
2022/11/21 15:33:04;;;;;;;6.45;3.22;;;;;;;;;;4972770;28;20063;-61
2022/11/21 15:35:37;;;;;;;5.82;2.85;;;;;;;;;;4984363;28;20053;-62
2022/11/21 15:38:16;;;;;;;4.80;3.00;;;;;;;;;;5050342;28;20059;-62
2022/11/21 15:41:03;;;;;;;5.97;3.85;;;;;;;;;;5071239;28;20175;-61
2022/11/21 15:43:40;;;;;;;4.80;2.50;;;;;;;;;;5038590;28;20527;-62
2022/11/21 15:46:24;;;;;;;9.50;2.65;;;;;;;;;;5093872;28;20047;-62
2022/11/21 15:48:56;;;;;;;;;;;;;;;;;;5094067;28;20047;-62
2022/11/21 15:51:32;;;;;;;7.85;2.92;;;;;;;;;;5093606;28;20287;-62
2022/11/21 15:54:23;;;;;;;5.97;2.13;;;;;;;;;;5093683;28;20476;-62
2022/11/21 15:56:55;;;;;;;4.47;2.33;;;;;;;;;;5093557;28;20044;-62
2022/11/21 15:59:25;;;;;;;8.25;2.63;;;;;;;;;;5093666;28;20052;-62
2022/11/21 16:01:57;;;;;;;4.75;1.98;;;;;;;;;;5058113;28;20530;-62
2022/11/21 16:04:27;;;;;;;9.32;2.35;;;;;;;;;;5093596;28;20484;-61
2022/11/21 16:06:57;;;;;;;4.35;2.10;;;;;;;;;;5093467;28;20040;-62
2022/11/21 16:09:28;;;;;;;7.28;2.15;;;;;;;;;;5093137;28;20040;-63
2022/11/21 16:11:59;;;;;;;5.60;2.22;;;;;;;;;;5094626;28;20036;-63
2022/11/21 16:14:30;;;;;;;5.13;2.33;;;;;;;;;;5113546;28;20055;-62